Time;durP1;ratioP1;P1;durP2;ratioP2;P2;SDS_P1;SDS_P2;PMS_P1;PMS_P2;Temp;Humidity;BMP_temperature;BMP_pressure;BME280_temperature;BME280_humidity;BME280_pressure;Samples;Min_cycle;Max_cycle;Signal;HPM_P1;HPM_P2
2021/12/16 00:31:59;;;;;;;25.13;8.93;;;8.90;99.90;;;;;;4975665;28;20043;-81
2021/12/16 00:34:30;;;;;;;22.25;8.10;;;8.90;99.90;;;;;;4974449;28;20515;-81
2021/12/16 00:36:56;;;;;;;31.77;9.50;;;8.90;99.90;;;;;;4957690;28;20066;-82
2021/12/16 00:39:32;;;;;;;33.42;9.70;;;8.90;99.90;;;;;;4957746;28;20126;-83
2021/12/16 00:42:05;;;;;;;23.95;8.75;;;8.90;99.90;;;;;;4938874;29;20520;-82
2021/12/16 00:45:00;;;;;;;26.17;9.05;;;8.80;99.90;;;;;;4939631;28;20113;-81
2021/12/16 00:47:34;;;;;;;22.33;9.13;;;8.80;99.90;;;;;;4975016;28;20058;-82
2021/12/16 00:50:18;;;;;;;31.98;10.13;;;8.80;99.90;;;;;;4934381;29;20024;-83
2021/12/16 00:55:41;;;;;;;29.38;9.27;;;8.80;99.90;;;;;;4934812;29;20042;-82
2021/12/16 00:58:07;;;;;;;21.13;9.23;;;8.70;99.90;;;;;;4918508;29;20146;-81
2021/12/16 01:00:35;;;;;;;32.88;9.70;;;8.70;99.90;;;;;;4934194;29;20074;-83
2021/12/16 01:03:17;;;;;;;23.30;9.50;;;8.70;99.90;;;;;;4933046;29;20515;-79
2021/12/16 01:39:05;;;;;;;26.05;10.63;;;9.00;99.90;;;;;;4973659;28;20034;-82
2021/12/16 01:49:24;;;;;;;26.25;9.38;;;9.10;99.90;;;;;;4977668;28;20109;-79
2021/12/16 01:59:40;;;;;;;30.02;10.07;;;9.20;99.90;;;;;;4917780;29;20039;-87
2021/12/16 02:02:40;;;;;;;27.63;9.82;;;9.20;99.90;;;;;;4916489;29;20493;-89
2021/12/16 02:10:37;;;;;;;31.67;9.20;;;9.10;99.90;;;;;;4915123;29;19915;-89
2021/12/16 02:32:41;;;;;;;26.42;11.93;;;9.10;99.90;;;;;;4977889;28;20062;-88
2021/12/16 02:35:43;;;;;;;35.63;10.50;;;9.00;99.90;;;;;;4960855;28;20071;-87
2021/12/16 02:38:03;;;;;;;31.00;10.85;;;9.00;99.90;;;;;;4975275;28;20399;-89
2021/12/16 02:40:31;;;;;;;32.72;10.85;;;8.90;99.90;;;;;;4977875;28;20038;-89
2021/12/16 02:43:05;;;;;;;30.75;12.23;;;8.90;99.90;;;;;;4974940;28;20495;-88
2021/12/16 02:48:35;;;;;;;31.15;11.70;;;9.00;99.90;;;;;;4978473;28;20081;-86
2021/12/16 02:51:20;;;;;;;37.13;11.07;;;9.00;99.90;;;;;;4935834;29;20040;-87
2021/12/16 02:53:49;;;;;;;30.33;10.27;;;9.00;99.90;;;;;;4941374;29;20043;-89
2021/12/16 02:56:16;;;;;;;33.72;11.80;;;9.00;99.90;;;;;;4922335;29;20396;-89
2021/12/16 02:58:44;;;;;;;30.40;10.90;;;9.00;99.90;;;;;;4937553;29;20035;-89
2021/12/16 03:01:19;;;;;;;23.55;9.88;;;9.00;99.90;;;;;;4937376;29;20039;-88
2021/12/16 03:03:47;;;;;;;25.83;10.85;;;8.90;99.90;;;;;;4934405;29;20028;-89
2021/12/16 03:06:13;;;;;;;33.15;10.55;;;8.90;99.90;;;;;;4938017;29;20027;-90
2021/12/16 03:08:40;;;;;;;17.77;8.80;;;8.90;99.90;;;;;;4942871;29;20055;-89
2021/12/16 03:11:20;;;;;;;18.73;7.93;;;8.90;99.90;;;;;;4942480;29;20063;-87
2021/12/16 03:17:15;;;;;;;16.95;8.45;;;8.90;99.90;;;;;;4937392;29;20028;-89
2021/12/16 03:19:30;;;;;;;17.35;8.57;;;8.90;99.90;;;;;;4953601;29;20039;-88
2021/12/16 03:21:59;;;;;;;21.42;7.90;;;8.90;99.90;;;;;;4962312;29;20039;-89
2021/12/16 03:37:17;;;;;;;25.85;7.82;;;8.70;99.90;;;;;;4999627;28;20062;-89
2021/12/16 03:40:01;;;;;;;18.77;8.35;;;8.70;99.90;;;;;;4984416;28;20026;-89
2021/12/16 03:42:34;;;;;;;21.15;8.30;;;8.60;99.90;;;;;;4980475;28;20482;-89
2021/12/16 03:48:12;;;;;;;16.85;7.57;;;8.60;99.90;;;;;;4970931;28;20042;-88
2021/12/16 03:50:38;;;;;;;18.45;7.60;;;8.50;99.90;;;;;;4964536;28;20046;-89
2021/12/16 03:53:06;;;;;;;14.40;7.10;;;8.50;99.90;;;;;;4979449;28;20027;-88
2021/12/16 03:55:33;;;;;;;19.63;8.48;;;8.40;99.90;;;;;;4963887;28;20038;-89
2021/12/16 03:58:00;;;;;;;17.38;8.27;;;8.40;99.90;;;;;;4973575;28;20045;-88
2021/12/16 04:00:31;;;;;;;16.30;7.70;;;8.40;99.90;;;;;;4985470;28;20118;-88
2021/12/16 04:02:58;;;;;;;20.73;8.27;;;8.30;99.90;;;;;;4991618;28;20030;-88
2021/12/16 04:05:24;;;;;;;16.23;7.53;;;8.20;99.90;;;;;;4983460;28;20475;-88
2021/12/16 04:07:51;;;;;;;15.95;7.72;;;8.20;99.90;;;;;;4969828;28;20053;-89
2021/12/16 04:10:26;;;;;;;21.67;8.18;;;8.20;99.90;;;;;;4961954;28;20023;-90
2021/12/16 04:12:52;;;;;;;26.05;7.88;;;8.30;99.90;;;;;;4979662;28;20049;-90
2021/12/16 04:15:18;;;;;;;16.90;8.45;;;8.30;99.90;;;;;;4978629;28;20239;-88
2021/12/16 04:17:45;;;;;;;22.92;7.65;;;8.30;99.90;;;;;;4977075;28;20419;-88
2021/12/16 04:20:14;;;;;;;15.40;8.03;;;8.20;99.90;;;;;;4961633;28;20026;-87
2021/12/16 04:22:43;;;;;;;18.67;7.40;;;8.20;99.90;;;;;;4962344;28;20046;-88
2021/12/16 04:25:14;;;;;;;16.35;7.50;;;8.20;99.90;;;;;;4980056;28;20042;-88
2021/12/16 04:27:41;;;;;;;23.15;7.65;;;8.10;99.90;;;;;;4970539;28;20070;-88
2021/12/16 04:30:09;;;;;;;21.98;6.72;;;8.10;99.90;;;;;;4963310;28;20034;-88
2021/12/16 04:32:36;;;;;;;16.90;7.18;;;8.10;99.90;;;;;;4980598;28;20391;-88
2021/12/16 04:35:02;;;;;;;21.75;7.47;;;8.10;99.90;;;;;;4984329;28;20479;-88
2021/12/16 04:37:28;;;;;;;14.80;6.55;;;8.10;99.90;;;;;;4981581;28;20030;-87
2021/12/16 04:39:54;;;;;;;17.42;6.88;;;8.00;99.90;;;;;;4970198;28;20486;-88
2021/12/16 04:42:24;;;;;;;15.05;6.78;;;7.90;99.90;;;;;;4978641;28;20022;-87
2021/12/16 04:44:50;;;;;;;14.60;6.80;;;7.90;99.90;;;;;;4997619;28;20026;-88
2021/12/16 04:47:16;;;;;;;10.70;6.15;;;7.90;99.90;;;;;;4986117;28;20424;-88
2021/12/16 04:49:42;;;;;;;13.38;6.63;;;7.90;99.90;;;;;;4962299;28;20034;-87
2021/12/16 04:52:14;;;;;;;12.18;6.20;;;7.80;99.90;;;;;;4962786;28;20036;-87
2021/12/16 04:54:41;;;;;;;15.02;6.47;;;7.90;99.90;;;;;;4982438;28;20026;-90
2021/12/16 04:57:08;;;;;;;15.00;6.85;;;7.90;99.90;;;;;;4981383;28;20027;-88
2021/12/16 04:59:36;;;;;;;10.98;5.85;;;7.90;99.90;;;;;;4970290;28;20027;-87
2021/12/16 05:02:15;;;;;;;11.25;6.55;;;7.80;99.90;;;;;;4980929;28;20023;-89
2021/12/16 05:04:41;;;;;;;17.55;7.15;;;7.80;99.90;;;;;;4980356;28;20085;-87
2021/12/16 05:07:09;;;;;;;16.00;6.45;;;7.70;99.90;;;;;;4981337;28;20030;-89
2021/12/16 05:12:11;;;;;;;22.00;7.43;;;7.60;99.90;;;;;;4980905;28;20038;-89
2021/12/16 05:14:37;;;;;;;15.35;7.10;;;7.60;99.90;;;;;;4959695;28;20050;-89
2021/12/16 05:17:12;;;;;;;14.35;6.47;;;7.50;99.90;;;;;;4970636;28;20047;-89
2021/12/16 05:19:40;;;;;;;10.38;6.28;;;7.50;99.90;;;;;;4981087;28;20105;-90
2021/12/16 05:24:52;;;;;;;13.93;6.43;;;7.50;99.90;;;;;;4979940;28;20489;-89
2021/12/16 05:27:19;;;;;;;13.07;6.38;;;7.40;99.90;;;;;;4975041;28;20019;-89
2021/12/16 05:29:46;;;;;;;10.10;5.32;;;7.40;99.90;;;;;;4962611;28;20031;-89
2021/12/16 05:32:13;;;;;;;16.92;6.55;;;7.40;99.90;;;;;;4978684;28;20034;-90
2021/12/16 05:34:38;;;;;;;14.50;6.35;;;7.40;99.90;;;;;;4959454;28;20035;-90
2021/12/16 05:37:05;;;;;;;14.18;5.82;;;7.40;99.90;;;;;;4977340;28;20023;-90
2021/12/16 05:39:31;;;;;;;11.82;6.38;;;7.40;99.90;;;;;;4979771;28;20051;-89
2021/12/16 05:41:58;;;;;;;13.15;6.60;;;7.50;99.90;;;;;;4976613;28;20023;-91
2021/12/16 05:44:24;;;;;;;10.40;6.53;;;7.40;99.90;;;;;;4977374;28;20059;-90
2021/12/16 05:46:50;;;;;;;13.05;6.35;;;7.40;99.90;;;;;;4979956;28;20395;-90
2021/12/16 05:49:16;;;;;;;15.20;6.07;;;7.30;99.90;;;;;;4963253;28;20025;-91
2021/12/16 05:51:44;;;;;;;12.52;6.05;;;7.30;99.90;;;;;;4963132;28;20022;-91
2021/12/16 05:54:12;;;;;;;13.32;7.10;;;7.30;99.90;;;;;;4963431;28;20035;-89
2021/12/16 05:56:39;;;;;;;13.38;6.32;;;7.30;99.90;;;;;;4962639;28;20054;-90
2021/12/16 05:59:07;;;;;;;15.27;5.65;;;7.30;99.90;;;;;;4967623;28;20027;-88
2021/12/16 06:01:40;;;;;;;18.88;6.57;;;7.20;99.90;;;;;;4982027;28;20018;-91
2021/12/16 06:04:06;;;;;;;14.85;6.53;;;7.20;99.90;;;;;;4985360;28;20019;-90
2021/12/16 06:06:33;;;;;;;12.63;6.50;;;7.20;99.90;;;;;;4973579;28;20027;-88
2021/12/16 06:08:59;;;;;;;16.02;6.85;;;7.20;99.90;;;;;;4984202;28;20034;-90
2021/12/16 06:11:29;;;;;;;16.05;6.82;;;7.10;99.90;;;;;;4984423;28;20034;-91
2021/12/16 06:14:12;;;;;;;17.13;6.47;;;7.10;99.90;;;;;;4968371;28;20085;-88
2021/12/16 06:28:09;;;;;;;11.93;6.55;;;7.20;99.90;;;;;;4931266;29;20559;-89
2021/12/16 06:30:42;;;;;;;11.38;5.47;;;7.10;99.90;;;;;;4955117;28;20121;-89
2021/12/16 06:33:11;;;;;;;10.40;5.82;;;7.20;99.90;;;;;;4982182;28;20023;-89
2021/12/16 06:35:37;;;;;;;8.98;5.35;;;7.10;99.90;;;;;;4982639;28;20027;-88
2021/12/16 06:38:04;;;;;;;11.77;5.80;;;7.10;99.90;;;;;;4982632;28;20081;-90
2021/12/16 06:40:31;;;;;;;15.05;5.90;;;7.10;99.90;;;;;;4965019;28;20118;-89
2021/12/16 06:43:00;;;;;;;8.65;5.20;;;7.10;99.90;;;;;;4963987;28;20034;-90
2021/12/16 06:45:30;;;;;;;13.30;4.95;;;7.00;99.90;;;;;;4963951;28;20097;-90
2021/12/16 06:48:11;;;;;;;10.13;5.55;;;7.00;99.90;;;;;;4963492;28;20023;-90
2021/12/16 06:53:09;;;;;;;9.75;5.63;;;7.00;99.90;;;;;;4981646;28;20058;-90
2021/12/16 06:55:42;;;;;;;9.05;5.40;;;7.10;99.90;;;;;;4981482;28;20058;-89
2021/12/16 06:58:18;;;;;;;9.60;5.13;;;7.10;99.90;;;;;;4982660;28;20452;-88
2021/12/16 07:00:48;;;;;;;9.00;4.95;;;7.10;99.90;;;;;;4971041;28;20109;-91
2021/12/16 07:03:21;;;;;;;11.27;4.82;;;7.10;99.90;;;;;;4989597;28;20081;-88
2021/12/16 07:06:00;;;;;;;7.78;4.22;;;7.10;99.90;;;;;;4964267;28;20033;-89
2021/12/16 07:08:29;;;;;;;8.90;4.82;;;7.10;99.90;;;;;;4964057;28;20093;-87
2021/12/16 07:10:57;;;;;;;8.52;4.57;;;7.10;99.90;;;;;;4948883;28;20113;-88
2021/12/16 07:13:35;;;;;;;11.10;5.20;;;7.10;99.90;;;;;;4978693;28;20054;-89
2021/12/16 07:16:02;;;;;;;14.68;5.15;;;7.00;99.90;;;;;;4963621;28;20062;-88
2021/12/16 07:18:30;;;;;;;12.53;5.73;;;7.00;99.90;;;;;;4963051;28;20034;-89
2021/12/16 07:20:56;;;;;;;11.27;5.68;;;7.00;99.90;;;;;;4963399;28;20282;-88
2021/12/16 07:23:23;;;;;;;8.80;4.85;;;7.00;99.90;;;;;;4978258;28;20395;-88
2021/12/16 07:25:49;;;;;;;10.65;5.30;;;7.00;99.90;;;;;;4980589;28;20047;-90
2021/12/16 07:28:15;;;;;;;10.80;4.85;;;7.00;99.90;;;;;;4981180;28;20415;-89
2021/12/16 07:30:44;;;;;;;13.13;5.78;;;6.90;99.90;;;;;;4962857;28;20030;-88
2021/12/16 07:33:12;;;;;;;15.90;5.55;;;6.90;99.90;;;;;;4980425;28;20431;-88
2021/12/16 07:35:41;;;;;;;9.65;5.30;;;6.90;99.90;;;;;;4981858;28;20079;-89
2021/12/16 07:38:08;;;;;;;9.88;5.40;;;7.00;99.90;;;;;;4964482;28;20085;-89
2021/12/16 07:40:35;;;;;;;9.45;5.13;;;6.90;99.90;;;;;;4964106;28;20035;-88
2021/12/16 07:45:34;;;;;;;13.57;5.78;;;6.90;99.90;;;;;;4981975;28;20395;-90
2021/12/16 07:48:00;;;;;;;11.25;4.30;;;6.90;99.90;;;;;;4968029;28;20025;-92
2021/12/16 07:50:26;;;;;;;12.73;5.47;;;6.90;99.90;;;;;;4983320;28;20034;-90
2021/12/16 07:52:53;;;;;;;12.65;5.30;;;6.90;99.90;;;;;;4959215;28;20063;-90
2021/12/16 07:55:19;;;;;;;12.32;5.20;;;6.90;99.90;;;;;;4964708;28;20471;-89
2021/12/16 07:57:45;;;;;;;14.82;5.50;;;6.90;99.90;;;;;;4982945;28;20030;-89
2021/12/16 08:00:17;;;;;;;15.52;4.93;;;6.90;99.90;;;;;;4981424;28;20574;-89
2021/12/16 08:02:43;;;;;;;9.30;4.93;;;7.00;99.90;;;;;;4990639;28;20026;-87
2021/12/16 08:05:10;;;;;;;12.45;5.47;;;7.00;99.90;;;;;;4979432;28;20055;-87
2021/12/16 08:07:37;;;;;;;9.00;5.20;;;7.00;99.90;;;;;;4997988;28;20030;-89
2021/12/16 08:10:05;;;;;;;14.07;5.22;;;7.10;99.90;;;;;;4979065;28;20097;-89
2021/12/16 08:12:30;;;;;;;13.07;5.07;;;7.10;99.90;;;;;;4981423;28;20039;-87
2021/12/16 08:14:56;;;;;;;12.00;5.72;;;7.10;99.90;;;;;;4998822;28;20049;-88
2021/12/16 08:17:22;;;;;;;10.52;5.75;;;7.10;99.90;;;;;;4982745;28;20117;-87
2021/12/16 08:19:49;;;;;;;11.20;5.88;;;7.10;99.90;;;;;;4975998;28;20046;-90
2021/12/16 08:22:15;;;;;;;19.42;5.78;;;7.20;99.90;;;;;;4995755;28;20032;-88
2021/12/16 08:24:41;;;;;;;15.60;6.47;;;7.20;99.90;;;;;;4983615;28;20037;-87
2021/12/16 08:27:09;;;;;;;13.27;5.82;;;7.20;99.90;;;;;;4998146;28;20026;-88
2021/12/16 08:29:34;;;;;;;17.27;5.77;;;7.20;99.90;;;;;;5000278;28;20023;-87
2021/12/16 08:32:00;;;;;;;11.68;5.20;;;7.30;99.90;;;;;;5000828;28;20019;-84
2021/12/16 08:34:30;;;;;;;14.25;5.75;;;7.30;99.90;;;;;;4984488;28;20018;-85
2021/12/16 08:36:56;;;;;;;13.05;4.45;;;7.30;99.90;;;;;;4984110;28;20011;-87
2021/12/16 08:39:23;;;;;;;11.05;5.55;;;7.40;99.90;;;;;;4981464;28;20116;-86
2021/12/16 08:41:51;;;;;;;15.65;5.38;;;7.40;99.90;;;;;;4983409;28;20139;-87
2021/12/16 08:44:17;;;;;;;16.15;5.90;;;7.50;99.90;;;;;;4983076;28;20042;-87
2021/12/16 08:46:47;;;;;;;13.88;6.03;;;7.50;99.90;;;;;;4983990;28;20041;-86
2021/12/16 08:49:13;;;;;;;15.18;6.05;;;7.60;99.90;;;;;;5000415;28;20023;-85
2021/12/16 08:51:45;;;;;;;10.85;5.72;;;7.60;99.90;;;;;;5000596;28;20050;-85
2021/12/16 08:54:11;;;;;;;14.52;6.15;;;7.70;99.90;;;;;;4983824;28;20034;-85
2021/12/16 08:56:37;;;;;;;18.88;6.10;;;7.80;99.90;;;;;;4999925;28;20106;-86
2021/12/16 08:59:04;;;;;;;15.00;5.63;;;7.80;99.90;;;;;;4972657;28;20042;-87
2021/12/16 09:01:33;;;;;;;15.40;6.65;;;7.90;99.90;;;;;;4999075;28;20030;-86
2021/12/16 09:03:59;;;;;;;10.65;5.80;;;7.90;99.90;;;;;;5000457;28;20083;-87
2021/12/16 09:06:25;;;;;;;12.80;6.45;;;7.90;99.90;;;;;;5000376;28;20026;-86
2021/12/16 09:08:51;;;;;;;14.02;6.32;;;8.00;99.90;;;;;;4983672;28;20095;-85
2021/12/16 09:11:23;;;;;;;12.82;6.18;;;8.00;99.90;;;;;;5010212;28;20038;-87
2021/12/16 09:13:55;;;;;;;18.63;6.80;;;8.10;99.90;;;;;;4998634;28;20043;-87
2021/12/16 09:16:23;;;;;;;10.48;5.47;;;8.20;99.90;;;;;;5013589;28;20022;-88
2021/12/16 09:18:49;;;;;;;11.77;6.72;;;8.20;99.90;;;;;;5008076;28;20019;-87
2021/12/16 09:21:21;;;;;;;17.27;7.50;;;8.30;99.90;;;;;;5000169;28;20041;-85
2021/12/16 09:23:48;;;;;;;12.95;6.40;;;8.40;99.90;;;;;;4987483;28;20013;-88
2021/12/16 09:26:15;;;;;;;14.05;7.10;;;8.40;99.90;;;;;;4995427;28;20043;-86
2021/12/16 09:28:41;;;;;;;15.05;6.95;;;8.50;99.90;;;;;;4985255;28;20050;-86
2021/12/16 09:31:11;;;;;;;13.35;6.95;;;8.50;99.90;;;;;;5001102;28;20042;-86
2021/12/16 09:33:43;;;;;;;13.00;7.43;;;8.60;99.90;;;;;;4991953;28;20090;-88
2021/12/16 09:36:12;;;;;;;14.63;7.07;;;8.70;99.90;;;;;;5003401;28;20015;-88
2021/12/16 09:38:39;;;;;;;16.38;7.03;;;8.70;99.90;;;;;;4983146;28;20045;-86
2021/12/16 09:41:05;;;;;;;10.70;5.95;;;8.80;99.90;;;;;;4985110;28;20023;-84
2021/12/16 09:43:37;;;;;;;14.57;6.80;;;8.80;99.90;;;;;;4999660;28;20022;-87
2021/12/16 09:46:06;;;;;;;19.30;6.30;;;8.90;99.90;;;;;;4984062;28;20019;-84
2021/12/16 09:48:33;;;;;;;13.52;7.32;;;9.00;99.90;;;;;;4990705;28;20023;-84
2021/12/16 09:51:04;;;;;;;19.45;7.10;;;9.00;99.90;;;;;;4998511;28;20058;-84
2021/12/16 09:53:30;;;;;;;13.85;6.80;;;9.10;99.90;;;;;;4999937;28;20019;-84
2021/12/16 09:55:59;;;;;;;12.75;5.70;;;9.20;99.90;;;;;;4999627;28;20035;-83
2021/12/16 09:58:26;;;;;;;14.90;6.78;;;9.20;99.90;;;;;;4999887;28;20095;-81
2021/12/16 10:00:53;;;;;;;11.30;6.55;;;9.30;99.90;;;;;;4999618;28;20027;-81
2021/12/16 10:03:21;;;;;;;12.05;6.18;;;9.30;99.90;;;;;;4983004;28;20042;-85
2021/12/16 10:05:47;;;;;;;9.02;5.07;;;9.40;99.90;;;;;;4992367;28;20053;-82
2021/12/16 10:08:13;;;;;;;17.52;7.95;;;9.40;99.90;;;;;;4982504;28;20015;-82
2021/12/16 10:10:39;;;;;;;10.13;5.75;;;9.50;99.90;;;;;;4982647;28;20055;-81
2021/12/16 10:13:06;;;;;;;12.52;6.90;;;9.50;99.90;;;;;;4979252;29;20102;-84
2021/12/16 10:18:07;;;;;;;15.02;7.35;;;9.70;99.90;;;;;;4980087;28;20015;-83
2021/12/16 10:20:59;;;;;;;13.50;6.90;;;9.70;99.90;;;;;;4979554;29;20035;-85
2021/12/16 10:23:32;;;;;;;16.50;6.68;;;9.70;99.90;;;;;;4979190;29;20035;-84
2021/12/16 10:26:01;;;;;;;21.73;6.50;;;9.80;99.90;;;;;;4979489;29;20037;-85
2021/12/16 10:28:30;;;;;;;16.52;6.30;;;9.80;99.90;;;;;;4995622;28;20082;-86
2021/12/16 10:31:04;;;;;;;15.52;6.57;;;9.90;99.90;;;;;;4979871;29;20027;-85
2021/12/16 10:33:37;;;;;;;15.48;6.45;;;9.90;99.90;;;;;;4980022;29;20035;-86
2021/12/16 10:36:11;;;;;;;13.55;7.13;;;9.90;99.90;;;;;;4979854;29;20042;-85
2021/12/16 10:38:41;;;;;;;10.30;6.75;;;10.00;99.90;;;;;;4979626;28;20079;-85
2021/12/16 10:41:10;;;;;;;17.95;7.70;;;10.00;99.90;;;;;;4979954;28;20047;-88
2021/12/16 10:43:42;;;;;;;14.23;7.32;;;10.00;99.90;;;;;;4979927;28;20019;-84
2021/12/16 10:46:30;;;;;;;14.10;6.72;;;10.10;99.90;;;;;;4982343;28;20023;-83
2021/12/16 10:49:05;;;;;;;13.45;7.40;;;10.10;99.90;;;;;;4983180;28;20019;-83
2021/12/16 10:51:34;;;;;;;20.98;7.95;;;10.20;99.90;;;;;;4982544;29;20019;-84
2021/12/16 10:54:05;;;;;;;16.20;7.57;;;10.20;99.90;;;;;;4981572;29;20039;-84
2021/12/16 10:56:49;;;;;;;15.98;7.68;;;10.30;99.90;;;;;;4982594;29;20067;-84
2021/12/16 10:59:34;;;;;;;14.57;7.80;;;10.40;99.90;;;;;;4982723;29;20019;-84
2021/12/16 11:02:00;;;;;;;16.08;7.65;;;10.40;99.90;;;;;;4982144;28;20059;-81
2021/12/16 11:04:48;;;;;;;17.65;7.43;;;10.50;99.90;;;;;;4981350;29;20070;-84
2021/12/16 11:07:22;;;;;;;20.17;8.48;;;10.40;99.90;;;;;;4983171;28;20031;-80
2021/12/16 11:09:58;;;;;;;16.02;7.90;;;10.50;99.90;;;;;;4995462;28;20023;-81
2021/12/16 11:12:45;;;;;;;24.15;8.35;;;10.60;99.90;;;;;;4978976;28;20016;-83
2021/12/16 11:15:32;;;;;;;16.85;7.78;;;10.70;99.90;;;;;;4984070;28;20050;-84
2021/12/16 11:18:05;;;;;;;18.90;8.45;;;10.80;99.90;;;;;;4991600;28;20047;-86
2021/12/16 11:20:59;;;;;;;16.90;7.35;;;10.80;99.90;;;;;;4988878;28;20023;-88
2021/12/16 11:23:34;;;;;;;15.80;7.72;;;10.90;99.90;;;;;;4972310;28;20479;-90
2021/12/16 11:26:10;;;;;;;15.48;7.70;;;10.90;99.90;;;;;;4970914;28;20041;-87
2021/12/16 11:28:48;;;;;;;17.90;7.60;;;11.00;99.90;;;;;;4975346;28;20031;-88
2021/12/16 11:31:23;;;;;;;;;;;11.00;99.90;;;;;;4982006;28;20556;-87
2021/12/16 11:34:00;;;;;;;15.52;6.90;;;11.10;99.90;;;;;;4990170;28;19952;-88
2021/12/16 11:36:28;;;;;;;15.82;8.18;;;11.10;99.90;;;;;;4964896;28;20432;-88
2021/12/16 11:39:17;;;;;;;17.03;7.97;;;11.20;99.90;;;;;;4984393;28;20109;-87
2021/12/16 11:41:51;;;;;;;18.77;8.32;;;11.20;99.90;;;;;;4979469;28;20311;-87
2021/12/16 11:44:28;;;;;;;14.93;7.78;;;11.20;99.90;;;;;;4977772;28;20050;-87
2021/12/16 11:47:02;;;;;;;;;;;11.30;99.90;;;;;;4973716;28;20038;-87
2021/12/16 11:49:45;;;;;;;24.35;9.07;;;11.40;99.90;;;;;;4979907;28;19910;-85
2021/12/16 11:52:21;;;;;;;17.27;8.48;;;11.40;99.90;;;;;;4984777;28;20356;-86
2021/12/16 11:55:01;;;;;;;21.65;8.60;;;11.50;99.90;;;;;;4973717;28;20479;-88
2021/12/16 11:57:39;;;;;;;19.90;8.93;;;11.50;99.90;;;;;;4962100;28;20035;-87
2021/12/16 12:00:15;;;;;;;;;;;11.50;99.90;;;;;;4961252;28;20043;-87
2021/12/16 12:02:51;;;;;;;20.02;8.52;;;11.60;99.90;;;;;;4980448;28;20432;-87
2021/12/16 12:05:35;;;;;;;19.80;9.90;;;11.70;99.90;;;;;;4980795;28;20470;-91
2021/12/16 12:08:22;;;;;;;16.33;8.98;;;11.70;99.90;;;;;;4972885;28;20057;-91
2021/12/16 12:10:48;;;;;;;26.60;8.73;;;11.60;99.90;;;;;;4965930;28;20034;-89
2021/12/16 12:13:30;;;;;;;18.55;8.85;;;11.60;99.90;;;;;;4981060;28;20053;-90
2021/12/16 12:16:12;;;;;;;19.85;8.55;;;11.60;99.90;;;;;;4966239;28;20061;-90
2021/12/16 12:18:49;;;;;;;26.20;8.90;;;11.60;99.90;;;;;;4981465;28;20507;-90
2021/12/16 12:21:22;;;;;;;18.98;9.35;;;11.60;99.90;;;;;;4979030;28;20042;-90
2021/12/16 12:23:53;;;;;;;19.13;9.18;;;11.60;99.90;;;;;;4954001;29;20534;-91
2021/12/16 12:26:20;;;;;;;25.00;8.68;;;11.60;99.90;;;;;;4968274;28;20030;-89
2021/12/16 12:28:51;;;;;;;22.65;10.38;;;11.60;99.90;;;;;;4981321;28;20027;-89
2021/12/16 12:31:23;;;;;;;17.00;8.07;;;11.70;99.90;;;;;;4964069;28;20027;-89
2021/12/16 12:33:49;;;;;;;18.70;8.77;;;11.70;99.90;;;;;;4981139;28;20027;-89
2021/12/16 12:36:17;;;;;;;25.38;10.15;;;11.60;99.90;;;;;;4981671;28;20035;-90
2021/12/16 12:38:45;;;;;;;22.65;9.40;;;11.60;99.90;;;;;;4982177;28;20582;-90
2021/12/16 12:41:11;;;;;;;16.08;8.65;;;11.70;99.90;;;;;;4962456;28;20031;-89
2021/12/16 12:43:37;;;;;;;16.45;7.95;;;11.80;99.90;;;;;;4965359;28;20040;-90
2021/12/16 12:46:10;;;;;;;17.52;8.52;;;11.90;99.90;;;;;;4982749;28;20384;-91
2021/12/16 12:48:38;;;;;;;18.10;7.97;;;11.90;99.90;;;;;;4964019;28;20089;-90
2021/12/16 12:51:05;;;;;;;18.48;7.80;;;11.90;99.90;;;;;;4961390;28;20058;-88
2021/12/16 12:53:39;;;;;;;14.85;7.97;;;11.90;99.90;;;;;;4981014;28;20027;-91
2021/12/16 12:56:13;;;;;;;14.23;7.43;;;11.90;99.90;;;;;;4960784;28;20538;-90
2021/12/16 12:58:59;;;;;;;21.45;7.85;;;12.00;99.90;;;;;;4960298;28;20071;-91
2021/12/16 13:01:38;;;;;;;21.03;8.23;;;12.00;99.90;;;;;;4961858;28;20027;-88
2021/12/16 13:04:12;;;;;;;17.27;9.02;;;12.00;99.90;;;;;;4962549;28;20689;-90
2021/12/16 13:06:58;;;;;;;20.08;8.88;;;12.10;99.90;;;;;;4961573;28;20031;-90
2021/12/16 13:09:28;;;;;;;23.90;9.00;;;12.00;99.90;;;;;;4980222;28;20476;-90
2021/12/16 13:11:54;;;;;;;18.80;7.45;;;12.10;99.90;;;;;;4961872;28;20031;-90
2021/12/16 13:14:28;;;;;;;23.88;8.30;;;12.10;99.90;;;;;;4967361;28;20050;-89
2021/12/16 13:28:36;;;;;;;14.20;7.93;;;12.30;99.90;;;;;;4975452;28;20077;-90
2021/12/16 13:31:07;;;;;;;15.27;8.40;;;12.40;99.90;;;;;;4971287;28;20089;-86
2021/12/16 13:33:52;;;;;;;14.85;7.68;;;12.30;99.90;;;;;;4965055;28;20037;-86
2021/12/16 13:36:27;;;;;;;21.45;8.35;;;12.30;99.90;;;;;;4959773;28;20027;-85
2021/12/16 13:38:54;;;;;;;23.17;8.80;;;12.30;99.90;;;;;;4958384;28;20041;-83
2021/12/16 13:41:27;;;;;;;15.27;7.53;;;12.20;99.90;;;;;;4975914;28;20031;-84
2021/12/16 13:44:11;;;;;;;21.33;7.53;;;12.20;99.90;;;;;;4983020;28;20026;-81
2021/12/16 13:47:07;;;;;;;27.63;8.90;;;12.10;99.90;;;;;;4979263;28;20033;-81
2021/12/16 13:59:04;;;;;;;17.77;8.23;;;12.00;99.90;;;;;;4983636;28;20055;-83
2021/12/16 14:09:37;;;;;;;15.90;8.30;;;11.90;99.90;;;;;;4970844;28;20031;-86
2021/12/16 14:24:08;;;;;;;29.85;9.80;;;11.70;99.90;;;;;;4978870;28;20041;-85
2021/12/16 14:34:58;;;;;;;21.45;9.30;;;11.70;99.90;;;;;;4977248;28;20031;-85
2021/12/16 14:38:08;;;;;;;22.85;9.57;;;11.70;99.90;;;;;;4960042;29;20054;-85
2021/12/16 14:40:39;;;;;;;24.77;10.32;;;11.80;99.90;;;;;;4975159;28;20031;-85
2021/12/16 14:48:48;;;;;;;26.80;10.07;;;11.70;99.90;;;;;;4973928;28;20483;-85
2021/12/16 14:51:00;;;;;;;22.17;9.57;;;11.70;99.90;;;;;;4970083;28;20022;-86
2021/12/16 14:53:38;;;;;;;24.67;9.45;;;11.70;99.90;;;;;;4943033;28;20039;-84
2021/12/16 14:56:19;;;;;;;20.40;8.90;;;11.70;99.90;;;;;;4963272;28;20495;-85
2021/12/16 14:58:49;;;;;;;19.95;9.27;;;11.60;99.90;;;;;;4980135;28;20091;-84
2021/12/16 15:01:41;;;;;;;25.98;8.93;;;11.70;99.90;;;;;;4988572;28;20027;-84
2021/12/16 15:04:10;;;;;;;23.02;8.95;;;11.60;99.90;;;;;;4958668;28;20086;-85
2021/12/16 15:06:45;;;;;;;22.00;9.18;;;11.60;99.90;;;;;;4969286;28;20048;-86
2021/12/16 15:11:58;;;;;;;15.60;8.18;;;11.50;99.90;;;;;;4977125;28;20631;-83
2021/12/16 15:45:03;;;;;;;23.83;9.55;;;11.00;99.90;;;;;;4958940;29;20455;-84
2021/12/16 15:47:29;;;;;;;27.42;10.15;;;10.90;99.90;;;;;;4958220;28;20029;-84
2021/12/16 15:49:57;;;;;;;21.70;8.68;;;10.90;99.90;;;;;;4954052;29;20427;-85
2021/12/16 15:52:23;;;;;;;27.30;9.20;;;10.80;99.90;;;;;;4957977;29;20034;-83
2021/12/16 15:54:51;;;;;;;26.80;10.38;;;10.80;99.90;;;;;;4956234;29;20023;-85
2021/12/16 15:57:23;;;;;;;17.90;8.77;;;10.80;99.90;;;;;;4956953;29;20034;-85
2021/12/16 15:59:50;;;;;;;23.13;7.95;;;10.80;99.90;;;;;;4951931;29;20036;-84
2021/12/16 16:02:18;;;;;;;22.35;9.52;;;10.80;99.90;;;;;;4973276;28;20129;-84
2021/12/16 16:04:44;;;;;;;;;;;10.70;99.90;;;;;;4957997;29;20396;-83
2021/12/16 16:07:14;;;;;;;14.68;8.23;;;10.70;99.90;;;;;;4957988;28;19910;-81
2021/12/16 16:09:49;;;;;;;22.95;9.02;;;10.70;99.90;;;;;;4954829;29;20365;-84
2021/12/16 16:12:18;;;;;;;24.77;8.23;;;10.60;99.90;;;;;;4956914;28;20357;-83
2021/12/16 16:14:46;;;;;;;;;;;10.60;99.90;;;;;;4955581;29;20084;-83
2021/12/16 16:17:17;;;;;;;21.33;9.60;;;10.60;99.90;;;;;;4956145;29;20425;-87
2021/12/16 16:19:45;;;;;;;17.38;8.02;;;10.50;99.90;;;;;;4957004;29;20042;-85
2021/12/16 16:22:11;;;;;;;21.45;8.27;;;10.50;99.90;;;;;;4957719;28;20066;-84
2021/12/16 16:24:47;;;;;;;19.27;8.57;;;10.50;99.90;;;;;;4957131;29;20031;-84
2021/12/16 16:27:20;;;;;;;25.90;10.07;;;10.40;99.90;;;;;;4957596;29;20069;-85
2021/12/16 16:29:49;;;;;;;25.67;9.82;;;10.40;99.90;;;;;;4957526;28;20043;-84
2021/12/16 16:32:16;;;;;;;23.05;9.27;;;10.40;99.90;;;;;;4961720;28;20391;-84
2021/12/16 16:34:45;;;;;;;19.77;8.93;;;10.40;99.90;;;;;;4959653;28;20039;-85
2021/12/16 16:37:19;;;;;;;16.70;8.18;;;10.40;99.90;;;;;;4955913;29;20119;-83
2021/12/16 16:39:57;;;;;;;14.63;7.50;;;10.30;99.90;;;;;;4958051;28;20042;-84
2021/12/16 16:42:29;;;;;;;;;;;10.30;99.90;;;;;;4958016;28;20392;-84
2021/12/16 16:44:57;;;;;;;22.30;9.27;;;10.30;99.90;;;;;;4958906;28;20385;-86
2021/12/16 16:47:39;;;;;;;16.92;8.25;;;10.20;99.90;;;;;;4958366;28;20058;-87
2021/12/16 16:50:09;;;;;;;21.17;7.95;;;10.20;99.90;;;;;;4940137;29;20087;-90
2021/12/16 16:52:48;;;;;;;25.70;8.85;;;10.20;99.90;;;;;;4957122;28;20078;-85
2021/12/16 16:55:19;;;;;;;19.58;8.43;;;10.10;99.90;;;;;;4964127;28;20027;-86
2021/12/16 16:57:46;;;;;;;16.58;9.20;;;10.10;99.90;;;;;;4956528;29;20035;-84
2021/12/16 17:00:33;;;;;;;19.92;8.50;;;10.00;99.90;;;;;;4955342;29;20069;-84
2021/12/16 17:03:05;;;;;;;21.38;8.85;;;10.00;99.90;;;;;;4958842;29;20031;-83
2021/12/16 17:05:39;;;;;;;18.73;8.52;;;9.90;99.90;;;;;;4956582;29;20035;-85
2021/12/16 17:08:14;;;;;;;18.85;8.85;;;9.90;99.90;;;;;;4956225;28;20472;-84